Friday, November 17, 2017, 9:18 PM GMT
Back to Local

CWIS, Charlevoix CS , Que.

Location: , , Canada Lat: 47.283
Local Time: 9:18 PM GMT (21:18 GMT) Lon: -70.633
Time Zone: GMT Elev: 2358 ft

Show me the last for .
Show Coded

Time T Td Feel RH Dir Speed Gust Alt SLP Vis Weather Sky Remarks
2017-11-17 21:00 17 13 0 82 310° 12 22 - 29.80 0 Peak wind: 28 mph (25 kts) from 350° at 31 min
2017-11-17 20:00 20 14 11 77 320° 7 - - 29.77 0 None
2017-11-17 18:00 21 15 5 76 320° 9 23 - 29.74 0 Peak wind: 23 mph (20 kts) from 310° at 52 min
2017-11-17 17:00 21 15 10 77 340° 9 - - 29.74 0 Peak wind: 21 mph (19 kts) from 320° at 35 min
2017-11-17 16:00 21 16 5 82 320° 10 20 - 29.74 0 Peak wind: 19 mph (17 kts) from 320° at 18 min
2017-11-17 15:00 21 17 6 83 330° 8 20 - 29.73 0 Peak wind: 27 mph (24 kts) from 300° at 00 min
2017-11-17 14:00 21 18 4 89 330° 13 24 - 29.70 0 Peak wind: 33 mph (29 kts) from 320° at 27 min
2017-11-17 13:00 21 19 4 93 320° 14 26 - 29.70 0 Peak wind: 29 mph (26 kts) from 320° at 44 min
2017-11-17 11:00 26 24 11 94 330° 12 22 - 29.66 0 Peak wind: 23 mph (20 kts) from 310° at 25 min
2017-11-17 10:00 27 26 13 95 340° 8 22 - 29.65 0 Peak wind: 21 mph (19 kts) from 270° at 57 min
2017-11-17 09:00 28 29 21 106 330° 7 - - 29.62 0 Peak wind: 25 mph (22 kts) from 10° at 25 min
2017-11-17 08:00 30 - 24 0 20° 6 - - 29.61 0 Peak wind: 36 mph (32 kts) from 50° at 06 min
2017-11-17 07:00 29 - 12 0 20° 21 37 - 29.62 0 Peak wind: 42 mph (37 kts) from 20° at 42 min
2017-11-17 06:00 29 - 12 0 50° 10 32 - 29.62 0 Peak wind: 35 mph (31 kts) from 50° at 44 min
2017-11-17 05:00 28 - 10 0 30° 22 37 - 29.64 0 Peak wind: 39 mph (34 kts) from 210° at 23 min
2017-11-17 04:00 29 - 14 0 210° 12 30 - 29.62 0 Peak wind: 41 mph (36 kts) from 240° at 07 min
2017-11-17 03:00 31 - 14 0 230° 13 38 - 29.64 0 Peak wind: 37 mph (33 kts) from 210° at 58 min
2017-11-17 02:00 31 - 16 0 250° 6 28 - 29.66 0 Peak wind: 27 mph (24 kts) from 240° at 57 min
1-hr Precip Total: 0.02"
2017-11-17 01:00 31 - 19 0 210° 5 17 - 29.69 0 Peak wind: 19 mph (17 kts) from 190° at 15 min
2017-11-17 00:00 31 - 26 0 200° 5 - - 29.70 0 Peak wind: 24 mph (21 kts) from 200° at 15 min
2017-11-16 23:00 31 - 27 0 190° 3 - - 29.70 0 None
2017-11-16 22:00 30 - 25 0 190° 5 - - 29.70 0 1-hr Precip Total: 0.02"

Support USWX by starting your Amazon purchase here.